createdAt,value
2023-06-11T05:01:58.367Z,16.73
2023-06-11T05:04:50.678Z,13.30
2023-06-11T05:07:37.407Z,13.85
2023-06-11T05:10:23.995Z,10.70
2023-06-11T05:13:11.793Z,11.70
2023-06-11T07:20:47.522Z,13.85
2023-06-11T07:23:35.799Z,9.88
2023-06-11T07:26:22.070Z,9.52
2023-06-11T07:29:09.770Z,11.68
2023-06-11T07:32:01.543Z,10.10
2023-06-11T07:34:47.933Z,10.30
2023-06-11T07:37:36.297Z,9.73
2023-06-11T07:40:22.644Z,13.35
2023-06-11T07:43:09.221Z,10.98
2023-06-11T07:45:55.713Z,11.40
2023-06-11T07:48:42.933Z,13.07
2023-06-11T07:51:29.168Z,10.60
2023-06-11T07:54:25.226Z,8.73
2023-06-11T07:57:14.177Z,9.88
2023-06-11T08:00:01.408Z,10.45
2023-06-11T08:02:50.154Z,10.13
2023-06-11T08:05:38.151Z,11.15
2023-06-11T08:08:25.689Z,9.80
2023-06-11T08:11:13.606Z,9.65
2023-06-11T08:13:59.767Z,9.02
2023-06-11T08:16:46.671Z,10.23
2023-06-11T08:19:33.882Z,12.07
2023-06-11T08:22:20.317Z,9.63
2023-06-11T08:25:06.614Z,10.90
2023-06-11T08:27:57.093Z,10.85
2023-06-11T08:30:43.339Z,13.35
2023-06-11T08:33:31.300Z,10.00
2023-06-11T08:36:17.941Z,8.93
2023-06-11T08:39:04.882Z,10.48
2023-06-11T08:41:51.203Z,12.65
2023-06-11T08:44:39.137Z,8.93
2023-06-11T08:47:25.249Z,11.80
2023-06-11T08:50:12.526Z,11.48
2023-06-11T08:53:01.718Z,8.88
2023-06-11T08:55:48.000Z,12.82
2023-06-11T08:58:35.704Z,10.48
2023-06-11T09:01:24.307Z,8.10
2023-06-11T09:04:10.847Z,13.48
2023-06-11T09:06:59.267Z,8.65
2023-06-11T09:09:45.711Z,9.60
2023-06-11T09:12:32.346Z,11.00
2023-06-11T09:15:19.592Z,8.60
2023-06-11T09:18:09.713Z,7.60
2023-06-11T09:20:57.350Z,8.18
2023-06-11T09:23:46.741Z,9.18
2023-06-11T09:26:33.213Z,13.32
2023-06-11T09:29:19.348Z,8.43
2023-06-11T09:32:12.485Z,10.20
2023-06-11T09:35:12.272Z,8.23
2023-06-11T09:37:58.709Z,8.52
2023-06-11T09:40:47.055Z,8.00
2023-06-11T09:43:35.070Z,9.52
2023-06-11T09:46:23.090Z,8.27
2023-06-11T09:49:10.368Z,8.15
2023-06-11T09:51:59.632Z,10.80
2023-06-11T09:54:47.546Z,8.70
2023-06-11T09:57:33.872Z,9.68
2023-06-11T10:00:20.953Z,8.77
2023-06-11T10:03:07.475Z,7.13
2023-06-11T10:05:54.447Z,7.80
2023-06-11T10:08:42.652Z,8.88
2023-06-11T10:11:31.339Z,11.00
2023-06-11T10:14:18.108Z,8.40
2023-06-11T11:04:43.698Z,9.02
2023-06-11T11:07:35.310Z,5.93
2023-06-11T11:10:25.380Z,6.43
2023-06-11T11:13:12.121Z,6.82
2023-06-11T11:15:59.641Z,6.82
2023-06-11T11:18:47.296Z,8.27
2023-06-11T11:21:33.808Z,6.60
2023-06-11T11:24:22.390Z,6.75
2023-06-11T11:27:09.000Z,6.57
2023-06-11T11:29:59.411Z,7.45
2023-06-11T11:32:47.212Z,9.82
2023-06-11T11:35:33.678Z,8.20
2023-06-11T11:38:19.956Z,6.68
2023-06-11T11:41:10.481Z,7.90
2023-06-11T11:43:57.017Z,7.43
2023-06-11T11:46:43.346Z,6.13
2023-06-11T11:49:33.589Z,9.88
2023-06-11T11:52:22.344Z,6.22
2023-06-11T11:55:08.885Z,9.05
2023-06-11T11:58:03.897Z,6.30
2023-06-11T12:00:50.813Z,6.97
2023-06-11T12:03:37.938Z,6.82
2023-06-11T12:06:25.083Z,8.63
2023-06-11T12:09:11.355Z,5.97
2023-06-11T12:12:05.215Z,6.63
2023-06-11T12:14:53.732Z,7.53
2023-06-11T12:17:41.396Z,7.55
2023-06-11T12:20:28.261Z,6.25
2023-06-11T12:23:15.419Z,8.07
2023-06-11T12:26:03.099Z,5.15
2023-06-11T12:28:51.155Z,8.75
2023-06-11T12:31:38.964Z,5.07
2023-06-11T12:34:25.227Z,4.50
2023-06-11T12:37:11.930Z,5.57
2023-06-11T12:39:58.677Z,4.00
2023-06-11T12:42:45.909Z,4.35
2023-06-11T12:45:34.061Z,5.00
2023-06-11T12:48:22.004Z,3.78
2023-06-11T12:51:08.364Z,4.03
2023-06-11T12:53:54.487Z,6.32
2023-06-11T12:56:40.982Z,6.60
2023-06-11T12:59:27.167Z,4.60
2023-06-11T13:02:19.250Z,3.83
2023-06-11T13:05:07.767Z,4.60
2023-06-11T13:07:55.098Z,6.18
2023-06-11T13:10:41.745Z,4.03
2023-06-11T13:13:28.277Z,4.80
2023-06-11T13:20:12.521Z,4.90
2023-06-11T13:22:59.237Z,6.32
2023-06-11T13:25:48.320Z,4.10
2023-06-11T13:28:34.981Z,7.82
2023-06-11T13:31:21.686Z,5.18
2023-06-11T13:34:08.065Z,5.00
2023-06-11T13:36:57.387Z,4.80
2023-06-11T13:39:43.806Z,5.53
2023-06-11T13:42:31.392Z,6.15
2023-06-11T13:45:19.975Z,4.53
2023-06-11T13:48:12.334Z,4.55
2023-06-11T13:50:58.847Z,4.85
2023-06-11T13:53:46.657Z,5.13
2023-06-11T13:56:32.790Z,6.90
2023-06-11T13:59:20.872Z,5.90
2023-06-11T14:02:08.207Z,4.95
2023-06-11T14:04:54.737Z,4.50
2023-06-11T14:07:42.282Z,4.10
2023-06-11T14:10:29.987Z,5.40
2023-06-11T14:13:16.352Z,5.22
2023-06-11T14:16:03.842Z,3.50
2023-06-11T14:18:50.531Z,3.60
2023-06-11T14:21:37.955Z,3.55
2023-06-11T14:24:24.793Z,5.63
2023-06-11T14:27:12.497Z,5.25
2023-06-11T14:29:58.887Z,4.47
2023-06-11T14:32:45.089Z,3.58
2023-06-11T14:35:31.653Z,4.05
2023-06-11T14:38:18.276Z,4.20
2023-06-11T14:41:04.756Z,4.40
2023-06-11T14:43:52.701Z,5.35
2023-06-11T14:46:39.325Z,5.95
2023-06-11T14:49:26.126Z,4.57
2023-06-11T14:52:12.278Z,4.32
2023-06-11T14:54:59.381Z,4.82
2023-06-11T14:57:45.966Z,6.47
2023-06-11T15:00:54.014Z,3.70
2023-06-11T15:03:41.660Z,4.07
2023-06-11T15:06:28.044Z,5.60
2023-06-11T15:09:14.511Z,3.72
2023-06-11T15:12:03.727Z,5.32
2023-06-11T15:14:50.056Z,4.25
2023-06-11T15:17:37.517Z,7.55
2023-06-11T15:20:25.062Z,9.75
2023-06-11T15:23:11.466Z,4.72
2023-06-11T15:25:58.017Z,6.30
2023-06-11T15:28:44.570Z,4.90
2023-06-11T15:31:31.062Z,6.57
2023-06-11T15:34:17.401Z,7.70
2023-06-11T15:37:04.936Z,16.05
2023-06-11T15:39:51.753Z,16.92
2023-06-11T15:42:38.089Z,23.90
2023-06-11T15:45:24.697Z,30.05
2023-06-11T15:48:10.695Z,5.68
2023-06-11T15:50:57.168Z,5.07
2023-06-11T15:53:44.577Z,5.45
2023-06-11T15:56:30.532Z,5.15
2023-06-11T15:59:17.187Z,6.57
2023-06-11T16:02:03.542Z,6.85
2023-06-11T16:04:52.091Z,6.90
2023-06-11T16:07:38.237Z,7.97
2023-06-11T16:10:26.055Z,7.07
2023-06-11T16:13:12.514Z,8.18
2023-06-11T16:15:59.021Z,6.13
2023-06-11T16:18:45.387Z,5.78
2023-06-11T16:21:31.502Z,8.05
2023-06-11T16:24:18.247Z,6.55
2023-06-11T16:27:06.327Z,5.75
2023-06-11T16:29:52.642Z,4.13
2023-06-11T16:32:39.084Z,5.95
2023-06-11T16:35:25.442Z,5.47
2023-06-11T16:38:12.192Z,4.90
2023-06-11T16:40:59.174Z,4.90
2023-06-11T16:43:46.944Z,8.20
2023-06-11T16:46:33.572Z,6.60
2023-06-11T16:49:19.896Z,5.38
2023-06-11T16:52:06.955Z,7.13
2023-06-11T16:54:53.321Z,6.95
2023-06-11T16:57:39.704Z,6.80
2023-06-11T17:00:27.185Z,8.77
2023-06-11T17:03:13.502Z,8.70
2023-06-11T17:05:59.765Z,6.85
2023-06-11T17:08:45.879Z,6.35
2023-06-11T17:11:31.931Z,7.15
2023-06-11T17:14:19.545Z,8.25
2023-06-11T17:17:07.465Z,6.80
2023-06-11T17:19:53.699Z,6.65
2023-06-11T17:22:40.068Z,6.43
2023-06-11T17:25:26.766Z,7.90
2023-06-11T17:28:13.402Z,15.30
2023-06-11T17:30:59.574Z,10.93
2023-06-11T17:33:46.929Z,9.05
2023-06-11T17:36:33.541Z,9.10
2023-06-11T17:39:19.712Z,7.05
2023-06-11T17:42:06.183Z,10.68
2023-06-11T17:44:52.744Z,7.78
2023-06-11T17:47:39.236Z,10.73
2023-06-11T17:50:27.168Z,7.07
2023-06-11T17:53:13.582Z,11.18
2023-06-11T17:55:59.630Z,10.18
2023-06-11T17:58:46.265Z,9.07
2023-06-11T18:01:32.468Z,6.80
2023-06-11T18:04:19.037Z,7.22
2023-06-11T18:07:10.671Z,7.60
2023-06-11T18:09:57.559Z,7.85
2023-06-11T18:12:44.098Z,9.25
2023-06-11T18:15:33.974Z,6.63
2023-06-11T18:18:21.702Z,6.97
2023-06-11T18:21:07.888Z,8.63
2023-06-11T18:23:55.536Z,7.43
2023-06-11T18:26:43.810Z,12.98
2023-06-11T18:29:33.610Z,6.97
2023-06-11T18:32:20.712Z,7.60
2023-06-11T18:35:07.476Z,7.35
2023-06-11T18:37:53.841Z,7.30
2023-06-11T18:40:41.697Z,8.07
2023-06-11T18:43:29.875Z,7.60
2023-06-11T18:46:15.997Z,7.95
2023-06-11T18:49:02.385Z,8.95
2023-06-11T18:51:50.168Z,12.85
2023-06-11T18:54:38.318Z,6.93
2023-06-11T18:57:30.515Z,7.32
2023-06-11T19:03:11.548Z,11.48
2023-06-11T19:05:58.076Z,9.70
2023-06-11T19:08:44.609Z,10.90
2023-06-11T19:11:31.043Z,8.98
2023-06-11T19:14:18.680Z,12.13
2023-06-11T19:17:05.513Z,8.60
2023-06-11T19:19:52.078Z,9.30
2023-06-11T19:22:38.406Z,11.40
2023-06-11T19:25:25.138Z,10.02
2023-06-11T19:28:11.252Z,12.93
2023-06-11T19:31:00.312Z,11.18
2023-06-11T19:33:46.760Z,8.15
2023-06-11T19:36:33.204Z,10.38
2023-06-11T19:39:19.718Z,8.80
2023-06-11T19:42:06.228Z,8.20
2023-06-11T19:44:52.398Z,9.40
2023-06-11T19:47:40.310Z,8.68
2023-06-11T19:50:27.439Z,8.93
2023-06-11T19:53:13.496Z,9.43
2023-06-11T19:55:59.392Z,10.70
2023-06-11T19:58:45.914Z,14.30
2023-06-11T22:01:53.046Z,6.43
2023-06-11T22:04:39.114Z,9.55
2023-06-11T22:07:25.698Z,13.07
2023-06-11T22:10:12.558Z,7.38
2023-06-11T22:12:59.053Z,8.10
